sensor_id;sensor_type;location;lat;lon;timestamp;P1;durP1;ratioP1;P2;durP2;ratioP2
13866;SDS011;7003;46.982;15.248;2022-11-20T00:02:24;19.63;;;10.93;;
13866;SDS011;7003;46.982;15.248;2022-11-20T00:04:51;14.40;;;8.57;;
13866;SDS011;7003;46.982;15.248;2022-11-20T00:07:18;14.10;;;8.43;;
13866;SDS011;7003;46.982;15.248;2022-11-20T00:09:47;15.83;;;7.57;;
13866;SDS011;7003;46.982;15.248;2022-11-20T00:12:16;14.43;;;9.40;;
13866;SDS011;7003;46.982;15.248;2022-11-20T00:14:46;13.87;;;9.53;;
13866;SDS011;7003;46.982;15.248;2022-11-20T00:17:13;21.83;;;11.10;;
13866;SDS011;7003;46.982;15.248;2022-11-20T00:19:40;11.13;;;7.97;;
13866;SDS011;7003;46.982;15.248;2022-11-20T00:22:09;12.83;;;9.17;;
13866;SDS011;7003;46.982;15.248;2022-11-20T00:24:36;13.67;;;10.10;;
13866;SDS011;7003;46.982;15.248;2022-11-20T00:27:03;12.63;;;8.63;;
13866;SDS011;7003;46.982;15.248;2022-11-20T00:29:32;13.57;;;8.63;;
13866;SDS011;7003;46.982;15.248;2022-11-20T00:31:59;15.00;;;6.53;;
13866;SDS011;7003;46.982;15.248;2022-11-20T00:34:26;10.70;;;7.47;;
13866;SDS011;7003;46.982;15.248;2022-11-20T00:36:53;14.63;;;8.57;;
13866;SDS011;7003;46.982;15.248;2022-11-20T00:39:22;10.93;;;6.93;;
13866;SDS011;7003;46.982;15.248;2022-11-20T00:41:49;13.50;;;8.33;;
13866;SDS011;7003;46.982;15.248;2022-11-20T00:44:19;15.30;;;9.50;;
13866;SDS011;7003;46.982;15.248;2022-11-20T00:46:47;12.57;;;7.43;;
13866;SDS011;7003;46.982;15.248;2022-11-20T00:49:16;11.73;;;6.73;;
13866;SDS011;7003;46.982;15.248;2022-11-20T00:51:43;12.83;;;8.70;;
13866;SDS011;7003;46.982;15.248;2022-11-20T00:54:10;17.03;;;9.47;;
13866;SDS011;7003;46.982;15.248;2022-11-20T00:56:40;13.40;;;9.13;;
13866;SDS011;7003;46.982;15.248;2022-11-20T00:59:08;12.87;;;8.63;;
13866;SDS011;7003;46.982;15.248;2022-11-20T01:01:35;10.67;;;7.83;;
13866;SDS011;7003;46.982;15.248;2022-11-20T01:04:04;10.63;;;7.47;;
13866;SDS011;7003;46.982;15.248;2022-11-20T01:06:34;12.57;;;6.90;;
13866;SDS011;7003;46.982;15.248;2022-11-20T01:09:06;11.97;;;7.63;;
13866;SDS011;7003;46.982;15.248;2022-11-20T01:11:37;10.80;;;7.77;;
13866;SDS011;7003;46.982;15.248;2022-11-20T01:14:07;10.20;;;9.13;;
13866;SDS011;7003;46.982;15.248;2022-11-20T01:16:37;12.30;;;8.50;;
13866;SDS011;7003;46.982;15.248;2022-11-20T01:19:11;15.60;;;9.30;;
13866;SDS011;7003;46.982;15.248;2022-11-20T01:21:42;12.10;;;8.10;;
13866;SDS011;7003;46.982;15.248;2022-11-20T01:24:11;11.20;;;8.27;;
13866;SDS011;7003;46.982;15.248;2022-11-20T01:26:40;11.90;;;6.67;;
13866;SDS011;7003;46.982;15.248;2022-11-20T01:29:09;12.23;;;6.63;;
13866;SDS011;7003;46.982;15.248;2022-11-20T01:31:39;14.50;;;9.57;;
13866;SDS011;7003;46.982;15.248;2022-11-20T01:34:08;13.63;;;8.60;;
13866;SDS011;7003;46.982;15.248;2022-11-20T01:36:39;9.33;;;6.27;;
13866;SDS011;7003;46.982;15.248;2022-11-20T01:39:07;10.50;;;8.23;;
13866;SDS011;7003;46.982;15.248;2022-11-20T01:41:40;13.23;;;8.67;;
13866;SDS011;7003;46.982;15.248;2022-11-20T01:44:43;13.73;;;8.23;;
13866;SDS011;7003;46.982;15.248;2022-11-20T01:47:16;14.10;;;8.53;;
13866;SDS011;7003;46.982;15.248;2022-11-20T01:49:48;14.00;;;7.37;;
13866;SDS011;7003;46.982;15.248;2022-11-20T01:52:23;12.27;;;7.10;;
13866;SDS011;7003;46.982;15.248;2022-11-20T01:54:54;14.43;;;7.07;;
13866;SDS011;7003;46.982;15.248;2022-11-20T01:57:28;12.53;;;8.30;;
13866;SDS011;7003;46.982;15.248;2022-11-20T01:59:59;11.57;;;8.53;;
13866;SDS011;7003;46.982;15.248;2022-11-20T02:02:32;11.00;;;7.80;;
13866;SDS011;7003;46.982;15.248;2022-11-20T02:05:17;11.57;;;8.20;;
13866;SDS011;7003;46.982;15.248;2022-11-20T02:07:51;20.90;;;9.60;;
13866;SDS011;7003;46.982;15.248;2022-11-20T02:10:22;16.47;;;8.57;;
13866;SDS011;7003;46.982;15.248;2022-11-20T02:12:56;9.73;;;6.43;;
13866;SDS011;7003;46.982;15.248;2022-11-20T02:15:44;15.53;;;8.87;;
13866;SDS011;7003;46.982;15.248;2022-11-20T02:18:16;13.00;;;6.87;;
13866;SDS011;7003;46.982;15.248;2022-11-20T02:20:47;15.23;;;8.10;;
13866;SDS011;7003;46.982;15.248;2022-11-20T02:23:21;12.03;;;8.83;;
13866;SDS011;7003;46.982;15.248;2022-11-20T02:25:54;8.00;;;6.57;;
13866;SDS011;7003;46.982;15.248;2022-11-20T02:28:26;16.33;;;9.10;;
13866;SDS011;7003;46.982;15.248;2022-11-20T02:30:56;17.93;;;9.67;;
13866;SDS011;7003;46.982;15.248;2022-11-20T02:33:25;11.43;;;7.17;;
13866;SDS011;7003;46.982;15.248;2022-11-20T02:35:52;11.50;;;7.33;;
13866;SDS011;7003;46.982;15.248;2022-11-20T02:38:22;11.13;;;6.70;;
13866;SDS011;7003;46.982;15.248;2022-11-20T02:40:51;14.70;;;9.00;;
13866;SDS011;7003;46.982;15.248;2022-11-20T02:43:22;10.03;;;7.10;;
13866;SDS011;7003;46.982;15.248;2022-11-20T02:45:49;12.13;;;7.10;;
13866;SDS011;7003;46.982;15.248;2022-11-20T02:48:17;12.00;;;6.93;;
13866;SDS011;7003;46.982;15.248;2022-11-20T02:50:44;14.47;;;7.90;;
13866;SDS011;7003;46.982;15.248;2022-11-20T02:53:11;13.13;;;7.73;;
13866;SDS011;7003;46.982;15.248;2022-11-20T02:55:38;10.97;;;6.50;;
13866;SDS011;7003;46.982;15.248;2022-11-20T02:58:07;11.27;;;7.30;;
13866;SDS011;7003;46.982;15.248;2022-11-20T03:00:38;10.23;;;7.00;;
13866;SDS011;7003;46.982;15.248;2022-11-20T03:03:05;12.20;;;8.37;;
13866;SDS011;7003;46.982;15.248;2022-11-20T03:05:35;8.87;;;7.17;;
13866;SDS011;7003;46.982;15.248;2022-11-20T03:08:04;11.40;;;7.37;;
13866;SDS011;7003;46.982;15.248;2022-11-20T03:10:31;11.30;;;6.97;;
13866;SDS011;7003;46.982;15.248;2022-11-20T03:12:59;11.00;;;7.20;;
13866;SDS011;7003;46.982;15.248;2022-11-20T03:15:29;11.17;;;7.10;;
13866;SDS011;7003;46.982;15.248;2022-11-20T03:17:56;18.97;;;8.13;;
13866;SDS011;7003;46.982;15.248;2022-11-20T03:20:24;11.40;;;6.87;;
13866;SDS011;7003;46.982;15.248;2022-11-20T03:22:53;13.17;;;7.03;;
13866;SDS011;7003;46.982;15.248;2022-11-20T03:25:20;13.87;;;7.23;;
13866;SDS011;7003;46.982;15.248;2022-11-20T03:27:47;10.70;;;6.83;;
13866;SDS011;7003;46.982;15.248;2022-11-20T03:30:18;9.20;;;6.57;;
13866;SDS011;7003;46.982;15.248;2022-11-20T03:32:47;9.77;;;8.17;;
13866;SDS011;7003;46.982;15.248;2022-11-20T03:35:14;11.23;;;8.10;;
13866;SDS011;7003;46.982;15.248;2022-11-20T03:37:44;10.37;;;6.90;;
13866;SDS011;7003;46.982;15.248;2022-11-20T03:40:11;8.90;;;7.13;;
13866;SDS011;7003;46.982;15.248;2022-11-20T03:42:39;10.10;;;6.23;;
13866;SDS011;7003;46.982;15.248;2022-11-20T03:45:12;9.60;;;6.67;;
13866;SDS011;7003;46.982;15.248;2022-11-20T03:47:39;9.10;;;6.10;;
13866;SDS011;7003;46.982;15.248;2022-11-20T03:50:11;12.57;;;7.00;;
13866;SDS011;7003;46.982;15.248;2022-11-20T03:52:39;7.97;;;5.93;;
13866;SDS011;7003;46.982;15.248;2022-11-20T03:55:09;8.63;;;6.03;;
13866;SDS011;7003;46.982;15.248;2022-11-20T03:57:38;8.93;;;6.87;;
13866;SDS011;7003;46.982;15.248;2022-11-20T04:00:06;10.00;;;6.63;;
13866;SDS011;7003;46.982;15.248;2022-11-20T04:02:37;14.37;;;7.17;;
13866;SDS011;7003;46.982;15.248;2022-11-20T04:05:04;10.47;;;6.73;;
13866;SDS011;7003;46.982;15.248;2022-11-20T04:07:34;12.80;;;6.80;;
13866;SDS011;7003;46.982;15.248;2022-11-20T04:10:04;11.77;;;6.17;;
13866;SDS011;7003;46.982;15.248;2022-11-20T04:12:32;9.77;;;8.17;;
13866;SDS011;7003;46.982;15.248;2022-11-20T04:15:02;11.93;;;5.93;;
13866;SDS011;7003;46.982;15.248;2022-11-20T04:17:29;12.40;;;7.63;;
13866;SDS011;7003;46.982;15.248;2022-11-20T04:19:59;10.43;;;7.07;;
13866;SDS011;7003;46.982;15.248;2022-11-20T04:22:28;10.10;;;6.53;;
13866;SDS011;7003;46.982;15.248;2022-11-20T04:24:57;12.07;;;6.40;;
13866;SDS011;7003;46.982;15.248;2022-11-20T04:27:26;8.90;;;6.10;;
13866;SDS011;7003;46.982;15.248;2022-11-20T04:29:53;13.07;;;6.43;;
13866;SDS011;7003;46.982;15.248;2022-11-20T04:32:22;10.33;;;6.80;;
13866;SDS011;7003;46.982;15.248;2022-11-20T04:34:49;11.10;;;6.70;;
13866;SDS011;7003;46.982;15.248;2022-11-20T04:37:16;8.17;;;5.40;;
13866;SDS011;7003;46.982;15.248;2022-11-20T04:39:46;11.40;;;7.00;;
13866;SDS011;7003;46.982;15.248;2022-11-20T04:42:14;12.70;;;6.70;;
13866;SDS011;7003;46.982;15.248;2022-11-20T04:44:57;10.47;;;6.37;;
13866;SDS011;7003;46.982;15.248;2022-11-20T04:47:24;9.40;;;5.00;;
13866;SDS011;7003;46.982;15.248;2022-11-20T04:49:51;9.50;;;6.30;;
13866;SDS011;7003;46.982;15.248;2022-11-20T04:52:18;11.80;;;6.13;;
13866;SDS011;7003;46.982;15.248;2022-11-20T04:54:48;7.10;;;4.40;;
13866;SDS011;7003;46.982;15.248;2022-11-20T04:57:19;7.17;;;4.30;;
13866;SDS011;7003;46.982;15.248;2022-11-20T04:59:49;14.80;;;7.23;;
13866;SDS011;7003;46.982;15.248;2022-11-20T05:02:18;11.57;;;7.30;;
13866;SDS011;7003;46.982;15.248;2022-11-20T05:04:46;9.40;;;6.20;;
13866;SDS011;7003;46.982;15.248;2022-11-20T05:07:13;11.13;;;5.77;;
13866;SDS011;7003;46.982;15.248;2022-11-20T05:09:40;8.33;;;6.30;;
13866;SDS011;7003;46.982;15.248;2022-11-20T05:12:10;7.57;;;5.23;;
13866;SDS011;7003;46.982;15.248;2022-11-20T05:14:38;8.43;;;6.57;;
13866;SDS011;7003;46.982;15.248;2022-11-20T05:17:09;9.77;;;6.80;;
13866;SDS011;7003;46.982;15.248;2022-11-20T05:19:37;15.80;;;9.43;;
13866;SDS011;7003;46.982;15.248;2022-11-20T05:22:06;8.27;;;5.27;;
13866;SDS011;7003;46.982;15.248;2022-11-20T05:24:33;11.83;;;7.63;;
13866;SDS011;7003;46.982;15.248;2022-11-20T05:27:00;7.83;;;5.73;;
13866;SDS011;7003;46.982;15.248;2022-11-20T05:29:27;9.07;;;7.10;;
13866;SDS011;7003;46.982;15.248;2022-11-20T05:31:59;8.27;;;7.40;;
13866;SDS011;7003;46.982;15.248;2022-11-20T05:34:28;6.97;;;5.50;;
13866;SDS011;7003;46.982;15.248;2022-11-20T05:36:55;10.30;;;4.60;;
13866;SDS011;7003;46.982;15.248;2022-11-20T05:39:22;9.30;;;6.87;;
13866;SDS011;7003;46.982;15.248;2022-11-20T05:41:51;12.20;;;6.23;;
13866;SDS011;7003;46.982;15.248;2022-11-20T05:44:38;7.33;;;5.43;;
13866;SDS011;7003;46.982;15.248;2022-11-20T05:47:07;9.43;;;5.73;;
13866;SDS011;7003;46.982;15.248;2022-11-20T05:49:36;12.63;;;7.63;;
13866;SDS011;7003;46.982;15.248;2022-11-20T05:52:06;7.80;;;6.03;;
13866;SDS011;7003;46.982;15.248;2022-11-20T05:54:33;6.50;;;5.40;;
13866;SDS011;7003;46.982;15.248;2022-11-20T05:57:03;7.70;;;5.07;;
13866;SDS011;7003;46.982;15.248;2022-11-20T05:59:32;8.53;;;5.27;;
13866;SDS011;7003;46.982;15.248;2022-11-20T06:02:00;7.40;;;6.63;;
13866;SDS011;7003;46.982;15.248;2022-11-20T06:04:29;8.73;;;5.73;;
13866;SDS011;7003;46.982;15.248;2022-11-20T06:06:59;7.37;;;5.80;;
13866;SDS011;7003;46.982;15.248;2022-11-20T06:09:27;10.90;;;6.60;;
13866;SDS011;7003;46.982;15.248;2022-11-20T06:11:57;12.07;;;6.93;;
13866;SDS011;7003;46.982;15.248;2022-11-20T06:14:25;10.93;;;7.03;;
13866;SDS011;7003;46.982;15.248;2022-11-20T06:16:53;10.40;;;5.17;;
13866;SDS011;7003;46.982;15.248;2022-11-20T06:19:23;13.90;;;6.40;;
13866;SDS011;7003;46.982;15.248;2022-11-20T06:21:52;13.00;;;6.37;;
13866;SDS011;7003;46.982;15.248;2022-11-20T06:24:20;6.50;;;5.13;;
13866;SDS011;7003;46.982;15.248;2022-11-20T06:26:51;7.00;;;5.63;;
13866;SDS011;7003;46.982;15.248;2022-11-20T06:29:21;6.80;;;5.07;;
13866;SDS011;7003;46.982;15.248;2022-11-20T06:31:50;6.50;;;4.80;;
13866;SDS011;7003;46.982;15.248;2022-11-20T06:34:20;5.73;;;3.73;;
13866;SDS011;7003;46.982;15.248;2022-11-20T06:36:49;7.17;;;4.00;;
13866;SDS011;7003;46.982;15.248;2022-11-20T06:39:19;4.07;;;3.57;;
13866;SDS011;7003;46.982;15.248;2022-11-20T06:41:49;9.87;;;6.13;;
13866;SDS011;7003;46.982;15.248;2022-11-20T06:44:17;6.60;;;5.43;;
13866;SDS011;7003;46.982;15.248;2022-11-20T06:46:45;10.27;;;6.37;;
13866;SDS011;7003;46.982;15.248;2022-11-20T06:49:15;6.10;;;4.27;;
13866;SDS011;7003;46.982;15.248;2022-11-20T06:51:43;10.23;;;6.80;;
13866;SDS011;7003;46.982;15.248;2022-11-20T06:54:14;8.67;;;5.27;;
13866;SDS011;7003;46.982;15.248;2022-11-20T06:56:44;6.27;;;5.13;;
13866;SDS011;7003;46.982;15.248;2022-11-20T06:59:16;6.77;;;4.53;;
13866;SDS011;7003;46.982;15.248;2022-11-20T07:01:45;6.83;;;4.87;;
13866;SDS011;7003;46.982;15.248;2022-11-20T07:04:18;6.23;;;4.33;;
13866;SDS011;7003;46.982;15.248;2022-11-20T07:06:47;5.03;;;3.67;;
13866;SDS011;7003;46.982;15.248;2022-11-20T07:09:17;7.23;;;4.73;;
13866;SDS011;7003;46.982;15.248;2022-11-20T07:11:47;4.50;;;3.87;;
13866;SDS011;7003;46.982;15.248;2022-11-20T07:14:16;5.20;;;4.73;;
13866;SDS011;7003;46.982;15.248;2022-11-20T07:16:44;7.13;;;4.67;;
13866;SDS011;7003;46.982;15.248;2022-11-20T07:19:13;7.57;;;4.63;;
13866;SDS011;7003;46.982;15.248;2022-11-20T07:21:46;8.03;;;5.57;;
13866;SDS011;7003;46.982;15.248;2022-11-20T07:24:16;5.13;;;3.83;;
13866;SDS011;7003;46.982;15.248;2022-11-20T07:26:47;7.60;;;4.60;;
13866;SDS011;7003;46.982;15.248;2022-11-20T07:29:16;4.87;;;3.53;;
13866;SDS011;7003;46.982;15.248;2022-11-20T07:31:44;5.37;;;4.23;;
13866;SDS011;7003;46.982;15.248;2022-11-20T07:34:11;5.43;;;4.27;;
13866;SDS011;7003;46.982;15.248;2022-11-20T07:36:42;5.47;;;3.90;;
13866;SDS011;7003;46.982;15.248;2022-11-20T07:39:10;7.73;;;5.13;;
13866;SDS011;7003;46.982;15.248;2022-11-20T07:41:38;5.83;;;4.80;;
13866;SDS011;7003;46.982;15.248;2022-11-20T07:44:07;5.20;;;4.40;;
13866;SDS011;7003;46.982;15.248;2022-11-20T07:46:35;6.67;;;5.13;;
13866;SDS011;7003;46.982;15.248;2022-11-20T07:49:03;9.03;;;5.73;;
13866;SDS011;7003;46.982;15.248;2022-11-20T07:51:32;12.27;;;8.17;;
13866;SDS011;7003;46.982;15.248;2022-11-20T07:54:00;10.90;;;7.80;;
13866;SDS011;7003;46.982;15.248;2022-11-20T07:56:28;10.80;;;7.43;;
13866;SDS011;7003;46.982;15.248;2022-11-20T07:58:58;8.70;;;6.13;;
13866;SDS011;7003;46.982;15.248;2022-11-20T08:01:27;8.20;;;5.77;;
13866;SDS011;7003;46.982;15.248;2022-11-20T08:03:59;7.17;;;5.83;;
13866;SDS011;7003;46.982;15.248;2022-11-20T08:06:27;7.53;;;4.97;;
13866;SDS011;7003;46.982;15.248;2022-11-20T08:08:57;5.70;;;4.77;;
13866;SDS011;7003;46.982;15.248;2022-11-20T08:11:26;6.63;;;4.90;;
13866;SDS011;7003;46.982;15.248;2022-11-20T08:14:11;7.47;;;5.20;;
13866;SDS011;7003;46.982;15.248;2022-11-20T08:16:41;7.77;;;6.90;;
13866;SDS011;7003;46.982;15.248;2022-11-20T08:19:12;9.00;;;5.47;;
13866;SDS011;7003;46.982;15.248;2022-11-20T08:21:41;6.93;;;4.77;;
13866;SDS011;7003;46.982;15.248;2022-11-20T08:24:09;9.13;;;5.63;;
13866;SDS011;7003;46.982;15.248;2022-11-20T08:26:39;5.40;;;4.90;;
13866;SDS011;7003;46.982;15.248;2022-11-20T08:29:08;9.03;;;7.10;;
13866;SDS011;7003;46.982;15.248;2022-11-20T08:31:36;7.17;;;4.67;;
13866;SDS011;7003;46.982;15.248;2022-11-20T08:34:08;7.93;;;4.80;;
13866;SDS011;7003;46.982;15.248;2022-11-20T08:36:36;7.23;;;6.10;;
13866;SDS011;7003;46.982;15.248;2022-11-20T08:39:04;13.23;;;8.77;;
13866;SDS011;7003;46.982;15.248;2022-11-20T08:41:35;11.67;;;8.13;;
13866;SDS011;7003;46.982;15.248;2022-11-20T08:44:05;30.17;;;12.80;;
13866;SDS011;7003;46.982;15.248;2022-11-20T08:46:34;15.90;;;8.53;;
13866;SDS011;7003;46.982;15.248;2022-11-20T08:49:05;16.30;;;9.13;;
13866;SDS011;7003;46.982;15.248;2022-11-20T08:51:41;8.23;;;7.23;;
13866;SDS011;7003;46.982;15.248;2022-11-20T08:54:12;9.77;;;5.97;;
13866;SDS011;7003;46.982;15.248;2022-11-20T08:56:40;9.83;;;6.00;;
13866;SDS011;7003;46.982;15.248;2022-11-20T08:59:08;12.40;;;6.47;;
13866;SDS011;7003;46.982;15.248;2022-11-20T09:01:37;13.37;;;7.87;;
13866;SDS011;7003;46.982;15.248;2022-11-20T09:04:05;8.10;;;5.97;;
13866;SDS011;7003;46.982;15.248;2022-11-20T09:06:35;7.77;;;6.40;;
13866;SDS011;7003;46.982;15.248;2022-11-20T09:09:03;14.83;;;6.27;;
13866;SDS011;7003;46.982;15.248;2022-11-20T09:11:34;10.43;;;7.87;;
13866;SDS011;7003;46.982;15.248;2022-11-20T09:14:02;9.53;;;6.93;;
13866;SDS011;7003;46.982;15.248;2022-11-20T09:16:31;8.90;;;7.47;;
13866;SDS011;7003;46.982;15.248;2022-11-20T09:18:59;10.40;;;6.37;;
13866;SDS011;7003;46.982;15.248;2022-11-20T09:21:27;6.73;;;4.70;;
13866;SDS011;7003;46.982;15.248;2022-11-20T09:23:57;5.20;;;4.60;;
13866;SDS011;7003;46.982;15.248;2022-11-20T09:26:25;5.47;;;4.57;;
13866;SDS011;7003;46.982;15.248;2022-11-20T09:28:56;5.10;;;4.60;;
13866;SDS011;7003;46.982;15.248;2022-11-20T09:31:24;5.63;;;4.13;;
13866;SDS011;7003;46.982;15.248;2022-11-20T09:33:53;7.63;;;5.83;;
13866;SDS011;7003;46.982;15.248;2022-11-20T09:36:22;8.60;;;5.90;;
13866;SDS011;7003;46.982;15.248;2022-11-20T09:38:51;10.20;;;6.63;;
13866;SDS011;7003;46.982;15.248;2022-11-20T09:41:34;11.13;;;8.93;;
13866;SDS011;7003;46.982;15.248;2022-11-20T09:44:18;9.13;;;7.03;;
13866;SDS011;7003;46.982;15.248;2022-11-20T09:47:00;8.17;;;5.83;;
13866;SDS011;7003;46.982;15.248;2022-11-20T09:49:40;8.17;;;5.90;;
13866;SDS011;7003;46.982;15.248;2022-11-20T09:52:29;8.33;;;6.77;;
13866;SDS011;7003;46.982;15.248;2022-11-20T09:55:03;14.17;;;8.63;;
13866;SDS011;7003;46.982;15.248;2022-11-20T09:57:37;8.47;;;7.60;;
13866;SDS011;7003;46.982;15.248;2022-11-20T10:00:09;9.50;;;7.17;;
13866;SDS011;7003;46.982;15.248;2022-11-20T10:02:42;9.40;;;6.93;;
13866;SDS011;7003;46.982;15.248;2022-11-20T10:05:17;9.40;;;7.03;;
13866;SDS011;7003;46.982;15.248;2022-11-20T10:07:51;6.73;;;5.60;;
13866;SDS011;7003;46.982;15.248;2022-11-20T10:10:29;11.87;;;7.80;;
13866;SDS011;7003;46.982;15.248;2022-11-20T10:13:09;9.20;;;5.53;;
13866;SDS011;7003;46.982;15.248;2022-11-20T10:15:52;9.93;;;7.67;;
13866;SDS011;7003;46.982;15.248;2022-11-20T10:18:36;9.27;;;6.27;;
13866;SDS011;7003;46.982;15.248;2022-11-20T10:21:19;10.33;;;5.87;;
13866;SDS011;7003;46.982;15.248;2022-11-20T10:26:58;12.53;;;7.73;;
13866;SDS011;7003;46.982;15.248;2022-11-20T10:29:36;11.77;;;6.50;;
13866;SDS011;7003;46.982;15.248;2022-11-20T10:32:09;8.77;;;5.83;;
13866;SDS011;7003;46.982;15.248;2022-11-20T10:34:43;8.40;;;5.43;;
13866;SDS011;7003;46.982;15.248;2022-11-20T10:37:19;7.10;;;5.60;;
13866;SDS011;7003;46.982;15.248;2022-11-20T10:39:54;9.87;;;6.70;;
13866;SDS011;7003;46.982;15.248;2022-11-20T10:42:28;13.77;;;8.37;;
13866;SDS011;7003;46.982;15.248;2022-11-20T10:45:13;9.73;;;6.50;;
13866;SDS011;7003;46.982;15.248;2022-11-20T10:47:47;7.33;;;6.13;;
13866;SDS011;7003;46.982;15.248;2022-11-20T10:50:19;11.27;;;8.83;;
13866;SDS011;7003;46.982;15.248;2022-11-20T10:52:51;8.77;;;6.33;;
13866;SDS011;7003;46.982;15.248;2022-11-20T10:55:30;6.17;;;5.13;;
13866;SDS011;7003;46.982;15.248;2022-11-20T10:58:08;10.47;;;7.33;;
13866;SDS011;7003;46.982;15.248;2022-11-20T11:00:42;7.20;;;4.57;;
13866;SDS011;7003;46.982;15.248;2022-11-20T11:03:18;6.00;;;5.40;;
13866;SDS011;7003;46.982;15.248;2022-11-20T11:05:51;6.63;;;5.80;;
13866;SDS011;7003;46.982;15.248;2022-11-20T11:08:28;7.27;;;5.70;;
13866;SDS011;7003;46.982;15.248;2022-11-20T11:11:10;9.33;;;5.83;;
13866;SDS011;7003;46.982;15.248;2022-11-20T11:13:50;8.47;;;7.23;;
13866;SDS011;7003;46.982;15.248;2022-11-20T11:16:23;7.53;;;6.13;;
13866;SDS011;7003;46.982;15.248;2022-11-20T11:19:03;7.83;;;6.37;;
13866;SDS011;7003;46.982;15.248;2022-11-20T11:21:32;8.87;;;6.00;;
13866;SDS011;7003;46.982;15.248;2022-11-20T11:24:02;6.67;;;5.70;;
13866;SDS011;7003;46.982;15.248;2022-11-20T11:26:31;6.20;;;5.60;;
13866;SDS011;7003;46.982;15.248;2022-11-20T11:29:04;4.75;;;4.25;;
13866;SDS011;7003;46.982;15.248;2022-11-20T11:31:34;6.38;;;4.75;;
13866;SDS011;7003;46.982;15.248;2022-11-20T11:34:05;5.75;;;4.22;;
13866;SDS011;7003;46.982;15.248;2022-11-20T11:36:34;4.35;;;3.95;;
13866;SDS011;7003;46.982;15.248;2022-11-20T11:39:05;4.63;;;3.45;;
13866;SDS011;7003;46.982;15.248;2022-11-20T11:41:38;3.03;;;2.72;;
13866;SDS011;7003;46.982;15.248;2022-11-20T11:44:14;3.60;;;3.30;;
13866;SDS011;7003;46.982;15.248;2022-11-20T11:47:08;4.70;;;4.22;;
13866;SDS011;7003;46.982;15.248;2022-11-20T11:49:42;10.18;;;7.25;;
13866;SDS011;7003;46.982;15.248;2022-11-20T11:52:12;11.48;;;6.20;;
13866;SDS011;7003;46.982;15.248;2022-11-20T11:54:43;8.55;;;6.18;;
13866;SDS011;7003;46.982;15.248;2022-11-20T11:57:16;8.48;;;6.22;;
13866;SDS011;7003;46.982;15.248;2022-11-20T11:59:54;10.52;;;7.32;;
13866;SDS011;7003;46.982;15.248;2022-11-20T12:02:35;7.72;;;6.43;;
13866;SDS011;7003;46.982;15.248;2022-11-20T12:05:09;9.85;;;6.68;;
13866;SDS011;7003;46.982;15.248;2022-11-20T12:07:45;10.50;;;6.30;;
13866;SDS011;7003;46.982;15.248;2022-11-20T12:10:20;6.70;;;5.97;;
13866;SDS011;7003;46.982;15.248;2022-11-20T12:12:59;6.20;;;5.18;;
13866;SDS011;7003;46.982;15.248;2022-11-20T12:15:33;5.38;;;4.35;;
13866;SDS011;7003;46.982;15.248;2022-11-20T12:18:04;5.80;;;4.95;;
13866;SDS011;7003;46.982;15.248;2022-11-20T12:20:40;7.10;;;5.32;;
13866;SDS011;7003;46.982;15.248;2022-11-20T12:23:18;5.35;;;4.63;;
13866;SDS011;7003;46.982;15.248;2022-11-20T12:25:54;6.22;;;4.78;;
13866;SDS011;7003;46.982;15.248;2022-11-20T12:31:35;2.40;;;2.25;;
13866;SDS011;7003;46.982;15.248;2022-11-20T12:34:30;2.17;;;1.98;;
13866;SDS011;7003;46.982;15.248;2022-11-20T12:37:15;2.28;;;2.08;;
13866;SDS011;7003;46.982;15.248;2022-11-20T12:39:54;2.35;;;2.13;;
13866;SDS011;7003;46.982;15.248;2022-11-20T12:45:51;2.38;;;2.17;;
13866;SDS011;7003;46.982;15.248;2022-11-20T12:48:39;5.20;;;3.22;;
13866;SDS011;7003;46.982;15.248;2022-11-20T12:51:23;4.80;;;3.65;;
13866;SDS011;7003;46.982;15.248;2022-11-20T12:54:27;4.07;;;3.75;;
13866;SDS011;7003;46.982;15.248;2022-11-20T12:57:09;3.53;;;2.88;;
13866;SDS011;7003;46.982;15.248;2022-11-20T12:59:49;2.95;;;2.65;;
13866;SDS011;7003;46.982;15.248;2022-11-20T13:02:27;3.22;;;2.88;;
13866;SDS011;7003;46.982;15.248;2022-11-20T13:05:11;3.63;;;3.28;;
13866;SDS011;7003;46.982;15.248;2022-11-20T13:07:57;5.22;;;4.28;;
13866;SDS011;7003;46.982;15.248;2022-11-20T13:10:31;3.97;;;3.00;;
13866;SDS011;7003;46.982;15.248;2022-11-20T13:13:10;3.50;;;3.17;;
13866;SDS011;7003;46.982;15.248;2022-11-20T13:15:45;2.58;;;2.38;;
13866;SDS011;7003;46.982;15.248;2022-11-20T13:18:19;3.20;;;2.70;;
13866;SDS011;7003;46.982;15.248;2022-11-20T13:20:52;5.35;;;4.00;;
13866;SDS011;7003;46.982;15.248;2022-11-20T13:23:26;2.78;;;2.58;;
13866;SDS011;7003;46.982;15.248;2022-11-20T13:26:05;3.60;;;2.80;;
13866;SDS011;7003;46.982;15.248;2022-11-20T13:28:46;3.60;;;3.05;;
13866;SDS011;7003;46.982;15.248;2022-11-20T13:31:25;3.20;;;2.50;;
13866;SDS011;7003;46.982;15.248;2022-11-20T13:34:01;4.70;;;2.97;;
13866;SDS011;7003;46.982;15.248;2022-11-20T13:36:33;2.78;;;2.55;;
13866;SDS011;7003;46.982;15.248;2022-11-20T13:39:08;5.38;;;4.00;;
13866;SDS011;7003;46.982;15.248;2022-11-20T13:41:37;4.47;;;3.05;;
13866;SDS011;7003;46.982;15.248;2022-11-20T13:44:11;3.38;;;3.08;;
13866;SDS011;7003;46.982;15.248;2022-11-20T13:46:42;4.95;;;3.10;;
13866;SDS011;7003;46.982;15.248;2022-11-20T13:49:16;5.32;;;4.32;;
13866;SDS011;7003;46.982;15.248;2022-11-20T13:51:50;7.30;;;5.75;;
13866;SDS011;7003;46.982;15.248;2022-11-20T13:54:40;6.57;;;5.63;;
13866;SDS011;7003;46.982;15.248;2022-11-20T13:57:26;4.18;;;3.78;;
13866;SDS011;7003;46.982;15.248;2022-11-20T14:00:11;5.28;;;4.78;;
13866;SDS011;7003;46.982;15.248;2022-11-20T14:02:42;8.60;;;5.45;;
13866;SDS011;7003;46.982;15.248;2022-11-20T14:05:18;7.28;;;5.07;;
13866;SDS011;7003;46.982;15.248;2022-11-20T14:07:50;4.55;;;3.85;;
13866;SDS011;7003;46.982;15.248;2022-11-20T14:10:23;5.53;;;4.47;;
13866;SDS011;7003;46.982;15.248;2022-11-20T14:12:52;7.18;;;4.38;;
13866;SDS011;7003;46.982;15.248;2022-11-20T14:15:25;5.17;;;4.57;;
13866;SDS011;7003;46.982;15.248;2022-11-20T14:17:56;4.83;;;4.37;;
13866;SDS011;7003;46.982;15.248;2022-11-20T14:20:28;6.73;;;5.03;;
13866;SDS011;7003;46.982;15.248;2022-11-20T14:23:00;6.67;;;4.57;;
13866;SDS011;7003;46.982;15.248;2022-11-20T14:25:32;5.70;;;4.40;;
13866;SDS011;7003;46.982;15.248;2022-11-20T14:28:04;5.47;;;4.07;;
13866;SDS011;7003;46.982;15.248;2022-11-20T14:30:37;6.17;;;4.40;;
13866;SDS011;7003;46.982;15.248;2022-11-20T14:33:13;6.07;;;5.47;;
13866;SDS011;7003;46.982;15.248;2022-11-20T14:35:44;5.53;;;5.03;;
13866;SDS011;7003;46.982;15.248;2022-11-20T14:38:18;6.10;;;5.47;;
13866;SDS011;7003;46.982;15.248;2022-11-20T14:40:54;4.37;;;3.87;;
13866;SDS011;7003;46.982;15.248;2022-11-20T14:43:35;5.77;;;4.27;;
13866;SDS011;7003;46.982;15.248;2022-11-20T14:46:07;5.10;;;4.60;;
13866;SDS011;7003;46.982;15.248;2022-11-20T14:48:43;4.07;;;3.60;;
13866;SDS011;7003;46.982;15.248;2022-11-20T14:51:27;5.20;;;4.13;;
13866;SDS011;7003;46.982;15.248;2022-11-20T14:54:09;4.70;;;4.10;;
13866;SDS011;7003;46.982;15.248;2022-11-20T14:56:55;5.80;;;4.37;;
13866;SDS011;7003;46.982;15.248;2022-11-20T14:59:26;4.50;;;3.27;;
13866;SDS011;7003;46.982;15.248;2022-11-20T15:01:57;5.73;;;4.67;;
13866;SDS011;7003;46.982;15.248;2022-11-20T15:04:29;6.80;;;4.83;;
13866;SDS011;7003;46.982;15.248;2022-11-20T15:06:59;6.37;;;4.33;;
13866;SDS011;7003;46.982;15.248;2022-11-20T15:09:29;4.87;;;4.27;;
13866;SDS011;7003;46.982;15.248;2022-11-20T15:12:01;5.27;;;3.57;;
13866;SDS011;7003;46.982;15.248;2022-11-20T15:14:35;6.37;;;3.67;;
13866;SDS011;7003;46.982;15.248;2022-11-20T15:17:07;5.20;;;4.70;;
13866;SDS011;7003;46.982;15.248;2022-11-20T15:19:39;4.77;;;3.90;;
13866;SDS011;7003;46.982;15.248;2022-11-20T15:22:09;9.80;;;6.27;;